createdAt,value
2022-10-22T00:02:13.929Z,67.0
2022-10-22T00:04:45.913Z,67.0
2022-10-22T00:07:16.536Z,67.0
2022-10-22T00:09:57.522Z,67.0
2022-10-22T00:12:18.089Z,67.0
2022-10-22T00:14:48.666Z,67.0
2022-10-22T00:17:29.259Z,67.0
2022-10-22T00:20:00.164Z,67.0
2022-10-22T00:22:40.795Z,67.0
2022-10-22T00:25:02.423Z,67.0
2022-10-22T00:27:33.014Z,67.0
2022-10-22T00:30:03.917Z,67.0
2022-10-22T00:35:14.671Z,67.0
2022-10-22T00:37:55.267Z,67.0
2022-10-22T00:40:25.874Z,67.0
2022-10-22T00:42:56.415Z,67.0
2022-10-22T00:45:27.019Z,67.0
2022-10-22T00:47:58.111Z,67.0
2022-10-22T00:50:38.732Z,67.0
2022-10-22T00:53:09.398Z,67.0
2022-10-22T00:55:40.002Z,67.0
2022-10-22T00:58:10.594Z,67.0
2022-10-22T01:00:41.354Z,67.0
2022-10-22T01:03:12.036Z,67.0
2022-10-22T01:05:52.610Z,67.0
2022-10-22T01:08:23.213Z,67.0
2022-10-22T01:10:53.842Z,67.0
2022-10-22T01:15:54.593Z,67.0
2022-10-22T01:18:35.293Z,67.0
2022-10-22T01:21:05.883Z,68.0
2022-10-22T01:23:36.565Z,67.0
2022-10-22T01:26:07.174Z,67.0
2022-10-22T01:28:37.833Z,67.0
2022-10-22T01:31:08.429Z,67.0
2022-10-22T01:33:49.249Z,67.0
2022-10-22T01:36:19.825Z,67.0
2022-10-22T01:38:50.418Z,68.0
2022-10-22T01:41:21.063Z,68.0
2022-10-22T01:43:51.633Z,68.0
2022-10-22T01:46:22.257Z,68.0
2022-10-22T01:49:02.826Z,68.0
2022-10-22T01:51:33.407Z,68.0
2022-10-22T01:56:34.156Z,68.0
2022-10-22T01:59:04.994Z,68.0
2022-10-22T02:01:45.585Z,68.0
2022-10-22T02:04:16.158Z,68.0
2022-10-22T02:06:46.763Z,68.0
2022-10-22T02:09:17.452Z,68.0
2022-10-22T02:11:48.098Z,68.0
2022-10-22T02:14:18.736Z,68.0
2022-10-22T02:16:59.481Z,68.0
2022-10-22T02:19:30.084Z,68.0
2022-10-22T02:22:00.664Z,68.0
2022-10-22T02:24:31.229Z,68.0
2022-10-22T02:27:01.837Z,68.0
2022-10-22T02:29:32.438Z,68.0
2022-10-22T02:32:13.028Z,68.0
2022-10-22T02:37:13.755Z,68.0
2022-10-22T02:39:44.343Z,68.0
2022-10-22T02:42:15.454Z,68.0
2022-10-22T02:44:46.022Z,68.0
2022-10-22T02:47:26.617Z,68.0
2022-10-22T02:49:57.207Z,68.0
2022-10-22T02:52:30.816Z,68.0
2022-10-22T02:55:01.922Z,68.0
2022-10-22T02:57:32.782Z,68.0
2022-10-22T03:00:13.646Z,68.0
2022-10-22T03:02:44.219Z,68.0
2022-10-22T03:05:14.826Z,68.0
2022-10-22T03:07:45.462Z,68.0
2022-10-22T03:10:16.043Z,68.0
2022-10-22T03:12:46.623Z,68.0
2022-10-22T03:17:57.779Z,68.0
2022-10-22T03:20:28.352Z,68.0
2022-10-22T03:22:58.918Z,68.0
2022-10-22T03:25:29.467Z,68.0
2022-10-22T03:28:00.044Z,68.0
2022-10-22T03:30:40.658Z,68.0
2022-10-22T03:33:11.229Z,68.0
2022-10-22T03:35:41.814Z,68.0
2022-10-22T03:38:12.376Z,68.0
2022-10-22T03:40:42.974Z,68.0
2022-10-22T03:43:23.579Z,68.0
2022-10-22T03:45:54.137Z,68.0
2022-10-22T03:48:24.723Z,68.0
2022-10-22T03:50:55.312Z,68.0
2022-10-22T03:53:25.917Z,68.0
2022-10-22T03:58:36.672Z,68.0
2022-10-22T04:01:07.340Z,68.0
2022-10-22T04:03:38.015Z,68.0
2022-10-22T04:06:08.600Z,68.0
2022-10-22T04:08:39.205Z,68.0
2022-10-22T04:11:09.915Z,68.0
2022-10-22T04:13:50.500Z,68.0
2022-10-22T04:16:21.077Z,68.0
2022-10-22T04:18:51.664Z,68.0
2022-10-22T04:21:22.263Z,68.0
2022-10-22T04:23:52.837Z,68.0
2022-10-22T04:26:33.458Z,68.0
2022-10-22T04:29:04.042Z,68.0
2022-10-22T04:31:36.822Z,68.0
2022-10-22T04:34:07.416Z,68.0
2022-10-22T04:39:08.270Z,68.0
2022-10-22T04:41:48.906Z,68.0
2022-10-22T04:44:26.136Z,68.0
2022-10-22T04:46:56.862Z,68.0
2022-10-22T04:49:27.417Z,68.0
2022-10-22T04:51:58.030Z,68.0
2022-10-22T04:54:30.465Z,68.0
2022-10-22T04:57:03.625Z,68.0
2022-10-22T04:59:34.198Z,68.0
2022-10-22T05:02:04.808Z,68.0
2022-10-22T05:04:35.379Z,68.0
2022-10-22T05:07:05.988Z,68.0
2022-10-22T05:09:36.535Z,68.0
2022-10-22T05:12:17.142Z,68.0
2022-10-22T05:14:52.822Z,68.0
2022-10-22T05:19:53.493Z,68.0
2022-10-22T05:22:24.048Z,68.0
2022-10-22T05:25:05.113Z,68.0
2022-10-22T05:27:35.708Z,68.0
2022-10-22T05:30:06.302Z,68.0
2022-10-22T05:32:36.885Z,68.0
2022-10-22T05:35:07.477Z,68.0
2022-10-22T05:37:38.220Z,68.0
2022-10-22T05:42:49.599Z,68.0
2022-10-22T05:45:20.192Z,68.0
2022-10-22T05:47:50.765Z,68.0
2022-10-22T05:50:21.376Z,68.0
2022-10-22T05:52:52.340Z,68.0
2022-10-22T05:55:32.940Z,68.0
2022-10-22T06:00:33.667Z,68.0
2022-10-22T06:03:04.232Z,68.0
2022-10-22T06:05:34.830Z,68.0
2022-10-22T06:08:16.794Z,68.0
2022-10-22T06:10:49.662Z,68.0
2022-10-22T06:13:20.237Z,68.0
2022-10-22T06:15:50.839Z,68.0
2022-10-22T06:18:21.407Z,68.0
2022-10-22T06:20:52.004Z,68.0
2022-10-22T06:23:32.591Z,68.0
2022-10-22T06:26:03.161Z,68.0
2022-10-22T06:28:33.743Z,68.0
2022-10-22T06:31:04.331Z,68.0
2022-10-22T06:33:34.934Z,68.0
2022-10-22T06:41:15.835Z,68.0
2022-10-22T06:43:49.918Z,68.0
2022-10-22T06:46:20.621Z,68.0
2022-10-22T06:48:51.206Z,68.0
2022-10-22T06:51:21.808Z,68.0
2022-10-22T06:54:02.394Z,68.0
2022-10-22T06:56:32.992Z,68.0
2022-10-22T06:59:03.536Z,68.0
2022-10-22T07:01:34.281Z,68.0
2022-10-22T07:04:05.022Z,68.0
2022-10-22T07:06:35.633Z,68.0
2022-10-22T07:11:47.066Z,68.0
2022-10-22T07:14:17.657Z,68.0
2022-10-22T07:16:48.259Z,68.0
2022-10-22T07:21:59.000Z,68.0
2022-10-22T07:26:59.772Z,68.0
2022-10-22T07:29:32.149Z,68.0
2022-10-22T07:32:02.738Z,68.0
2022-10-22T07:34:33.321Z,68.0
2022-10-22T07:37:14.503Z,68.0
2022-10-22T07:39:45.092Z,68.0
2022-10-22T07:42:15.695Z,68.0
2022-10-22T07:44:46.366Z,68.0
2022-10-22T07:47:17.363Z,68.0
2022-10-22T07:49:48.062Z,68.0
2022-10-22T07:52:28.725Z,68.0
2022-10-22T07:54:59.838Z,68.0
2022-10-22T07:57:30.424Z,68.0
2022-10-22T08:02:31.175Z,68.0
2022-10-22T08:05:02.234Z,68.0
2022-10-22T08:07:42.848Z,68.0
2022-10-22T08:10:13.446Z,68.0
2022-10-22T08:12:44.214Z,68.0
2022-10-22T08:15:14.899Z,68.0
2022-10-22T08:17:45.485Z,68.0
2022-10-22T08:20:16.077Z,68.0
2022-10-22T08:22:57.125Z,68.0
2022-10-22T08:25:27.692Z,68.0
2022-10-22T08:27:58.284Z,68.0
2022-10-22T08:30:28.890Z,68.0
2022-10-22T08:33:03.319Z,68.0
2022-10-22T08:35:43.916Z,68.0
2022-10-22T08:38:14.487Z,68.0
2022-10-22T08:43:15.232Z,67.0
2022-10-22T08:48:15.961Z,68.0
2022-10-22T08:50:56.559Z,67.0
2022-10-22T08:53:27.221Z,68.0
2022-10-22T08:55:57.821Z,68.0
2022-10-22T08:58:28.406Z,68.0
2022-10-22T09:00:58.997Z,68.0
2022-10-22T09:03:29.586Z,68.0
2022-10-22T09:06:10.200Z,68.0
2022-10-22T09:08:40.999Z,68.0
2022-10-22T09:11:11.667Z,68.0
2022-10-22T09:13:42.235Z,67.0
2022-10-22T09:16:12.840Z,67.0
2022-10-22T09:18:53.442Z,68.0
2022-10-22T09:23:54.179Z,67.0
2022-10-22T09:26:24.813Z,67.0
2022-10-22T09:28:55.395Z,67.0
2022-10-22T09:31:26.038Z,67.0
2022-10-22T09:34:06.622Z,67.0
2022-10-22T09:36:37.211Z,67.0
2022-10-22T09:39:07.786Z,67.0
2022-10-22T09:41:38.443Z,67.0
2022-10-22T09:44:09.013Z,67.0
2022-10-22T09:46:39.607Z,67.0
2022-10-22T09:49:20.192Z,67.0
2022-10-22T09:52:00.812Z,67.0
2022-10-22T09:54:31.406Z,67.0
2022-10-22T09:57:02.053Z,67.0
2022-10-22T09:59:32.618Z,67.0
2022-10-22T10:04:43.390Z,67.0
2022-10-22T10:07:14.000Z,67.0
2022-10-22T10:09:44.595Z,66.0
2022-10-22T10:12:15.195Z,66.0
2022-10-22T10:14:45.785Z,66.0
2022-10-22T10:17:16.373Z,66.0
2022-10-22T10:19:59.988Z,67.0
2022-10-22T10:22:23.542Z,66.0
2022-10-22T10:24:54.152Z,66.0
2022-10-22T10:27:24.740Z,66.0
2022-10-22T10:29:55.348Z,66.0
2022-10-22T10:32:35.957Z,66.0
2022-10-22T10:35:06.488Z,66.0
2022-10-22T10:37:37.074Z,66.0
2022-10-22T10:40:07.736Z,65.0
2022-10-22T10:45:08.471Z,65.0
2022-10-22T10:47:49.461Z,65.0
2022-10-22T10:50:20.047Z,65.0
2022-10-22T10:52:50.625Z,65.0
2022-10-22T10:55:21.241Z,65.0
2022-10-22T10:57:52.249Z,65.0
2022-10-22T11:00:22.872Z,65.0
2022-10-22T11:03:03.508Z,64.0
2022-10-22T11:05:34.146Z,64.0
2022-10-22T11:08:06.526Z,64.0
2022-10-22T11:10:37.157Z,64.0
2022-10-22T11:13:07.767Z,63.0
2022-10-22T11:15:38.361Z,63.0
2022-10-22T11:18:18.950Z,63.0
2022-10-22T11:20:49.527Z,63.0
2022-10-22T11:25:50.284Z,62.0
2022-10-22T11:28:21.625Z,62.0
2022-10-22T11:30:52.221Z,62.0
2022-10-22T11:33:32.854Z,62.0
2022-10-22T11:36:03.451Z,62.0
2022-10-22T11:38:34.925Z,62.0
2022-10-22T11:41:05.809Z,62.0
2022-10-22T11:43:36.396Z,62.0
2022-10-22T11:46:16.989Z,62.0
2022-10-22T11:48:47.572Z,62.0
2022-10-22T11:51:18.158Z,62.0
2022-10-22T11:53:48.802Z,62.0
2022-10-22T11:56:19.439Z,62.0
2022-10-22T11:58:52.110Z,62.0
2022-10-22T12:06:36.372Z,61.0
2022-10-22T12:09:07.128Z,61.0
2022-10-22T12:11:37.831Z,61.0
2022-10-22T12:14:08.396Z,61.0
2022-10-22T12:17:05.724Z,61.0
2022-10-22T12:19:16.287Z,61.0
2022-10-22T12:21:46.898Z,60.0
2022-10-22T12:24:17.459Z,60.0
2022-10-22T12:26:58.059Z,60.0
2022-10-22T12:29:21.006Z,60.0
2022-10-22T12:32:01.621Z,60.0
2022-10-22T12:34:32.195Z,60.0
2022-10-22T12:39:33.016Z,60.0
2022-10-22T12:42:03.608Z,60.0
2022-10-22T12:47:14.327Z,59.0
2022-10-22T12:49:54.914Z,59.0
2022-10-22T12:52:25.490Z,59.0
2022-10-22T12:54:56.111Z,59.0
2022-10-22T12:57:26.706Z,59.0
2022-10-22T13:00:07.347Z,59.0
2022-10-22T13:02:37.997Z,59.0
2022-10-22T13:05:08.612Z,59.0
2022-10-22T13:07:39.206Z,59.0
2022-10-22T13:10:09.838Z,59.0
2022-10-22T13:12:40.603Z,59.0
2022-10-22T13:15:21.353Z,59.0
2022-10-22T13:17:52.557Z,59.0
2022-10-22T13:20:23.119Z,59.0
2022-10-22T13:22:53.700Z,59.0
2022-10-22T13:27:54.448Z,59.0
2022-10-22T13:30:35.049Z,59.0
2022-10-22T13:33:05.661Z,58.0
2022-10-22T13:35:36.273Z,59.0
2022-10-22T13:38:06.867Z,58.0
2022-10-22T13:40:37.470Z,58.0
2022-10-22T13:43:18.052Z,58.0
2022-10-22T13:45:48.628Z,58.0
2022-10-22T13:48:19.222Z,58.0
2022-10-22T13:50:49.823Z,58.0
2022-10-22T13:53:20.413Z,58.0
2022-10-22T13:55:51.026Z,58.0
2022-10-22T13:58:31.602Z,58.0
2022-10-22T14:01:02.224Z,58.0
2022-10-22T14:03:32.904Z,58.0
2022-10-22T14:08:33.704Z,58.0
2022-10-22T14:11:04.416Z,57.0
2022-10-22T14:13:44.984Z,57.0
2022-10-22T14:16:15.581Z,58.0
2022-10-22T14:18:46.174Z,58.0
2022-10-22T14:21:16.784Z,58.0
2022-10-22T14:23:47.376Z,58.0
2022-10-22T14:26:17.961Z,58.0
2022-10-22T14:29:19.493Z,59.0
2022-10-22T14:31:30.154Z,59.0
2022-10-22T14:34:00.776Z,59.0
2022-10-22T14:36:31.337Z,59.0
2022-10-22T14:39:01.927Z,59.0
2022-10-22T14:41:32.528Z,59.0
2022-10-22T14:44:13.194Z,59.0
2022-10-22T14:49:13.912Z,59.0
2022-10-22T14:51:44.488Z,60.0
2022-10-22T14:54:15.079Z,60.0
2022-10-22T14:56:45.696Z,60.0
2022-10-22T14:59:26.305Z,60.0
2022-10-22T15:01:56.886Z,60.0
2022-10-22T15:04:27.508Z,60.0
2022-10-22T15:06:58.103Z,60.0
2022-10-22T15:09:28.743Z,60.0
2022-10-22T15:11:59.337Z,60.0
2022-10-22T15:14:39.951Z,60.0
2022-10-22T15:17:10.528Z,60.0
2022-10-22T15:19:51.126Z,60.0
2022-10-22T15:22:21.710Z,60.0
2022-10-22T15:24:52.288Z,60.0
2022-10-22T15:32:33.667Z,60.0
2022-10-22T15:35:04.469Z,60.0
2022-10-22T15:37:35.018Z,60.0
2022-10-22T15:40:05.614Z,60.0
2022-10-22T15:42:46.265Z,61.0
2022-10-22T15:45:16.862Z,61.0
2022-10-22T15:47:47.808Z,61.0
2022-10-22T15:50:19.282Z,61.0
2022-10-22T15:52:49.963Z,61.0
2022-10-22T15:55:20.706Z,61.0
2022-10-22T15:58:03.205Z,61.0
2022-10-22T16:00:24.141Z,61.0
2022-10-22T16:02:54.860Z,61.0
2022-10-22T16:05:25.473Z,61.0
2022-10-22T16:10:36.226Z,62.0
2022-10-22T16:13:16.808Z,62.0
2022-10-22T16:15:47.418Z,62.0
2022-10-22T16:18:18.009Z,62.0
2022-10-22T16:20:48.609Z,62.0
2022-10-22T16:23:19.286Z,63.0
2022-10-22T16:25:59.893Z,63.0
2022-10-22T16:28:30.695Z,63.0
2022-10-22T16:31:01.313Z,63.0
2022-10-22T16:33:39.051Z,63.0
2022-10-22T16:36:02.197Z,63.0
2022-10-22T16:38:32.780Z,63.0
2022-10-22T16:41:13.405Z,63.0
2022-10-22T16:43:44.018Z,63.0
2022-10-22T16:46:14.600Z,64.0
2022-10-22T16:51:15.328Z,64.0
2022-10-22T16:53:45.951Z,64.0
2022-10-22T16:56:26.573Z,64.0
2022-10-22T16:58:57.179Z,64.0
2022-10-22T17:01:28.565Z,64.0
2022-10-22T17:04:01.794Z,64.0
2022-10-22T17:06:32.419Z,64.0
2022-10-22T17:09:03.104Z,64.0
2022-10-22T17:11:44.885Z,64.0
2022-10-22T17:14:15.557Z,64.0
2022-10-22T17:16:46.145Z,64.0
2022-10-22T17:19:16.737Z,64.0
2022-10-22T17:21:47.310Z,64.0
2022-10-22T17:24:27.908Z,65.0
2022-10-22T17:26:58.542Z,65.0
2022-10-22T17:31:59.333Z,65.0
2022-10-22T17:34:29.892Z,65.0
2022-10-22T17:37:00.449Z,65.0
2022-10-22T17:39:41.039Z,65.0
2022-10-22T17:42:11.631Z,65.0
2022-10-22T17:44:42.222Z,65.0
2022-10-22T17:47:12.805Z,65.0
2022-10-22T17:49:43.335Z,65.0
2022-10-22T17:52:13.931Z,65.0
2022-10-22T17:54:54.536Z,66.0
2022-10-22T17:57:25.106Z,66.0
2022-10-22T17:59:55.678Z,66.0
2022-10-22T18:02:26.394Z,66.0
2022-10-22T18:04:56.981Z,66.0
2022-10-22T18:07:27.598Z,66.0
2022-10-22T18:12:38.485Z,65.0
2022-10-22T18:15:09.181Z,65.0
2022-10-22T18:17:42.951Z,66.0
2022-10-22T18:20:13.647Z,66.0
2022-10-22T18:22:54.253Z,66.0
2022-10-22T18:25:24.887Z,66.0
2022-10-22T18:27:56.534Z,66.0
2022-10-22T18:30:27.138Z,66.0
2022-10-22T18:32:57.735Z,66.0
2022-10-22T18:35:28.310Z,66.0
2022-10-22T18:38:08.880Z,66.0
2022-10-22T18:40:39.476Z,66.0
2022-10-22T18:43:10.073Z,66.0
2022-10-22T18:45:40.655Z,66.0
2022-10-22T18:48:11.221Z,66.0
2022-10-22T18:53:21.989Z,66.0
2022-10-22T18:55:52.554Z,66.0
2022-10-22T18:58:23.155Z,66.0
2022-10-22T19:00:53.778Z,66.0
2022-10-22T19:03:24.454Z,66.0
2022-10-22T19:05:57.295Z,66.0
2022-10-22T19:08:38.127Z,66.0
2022-10-22T19:11:01.877Z,67.0
2022-10-22T19:13:32.443Z,67.0
2022-10-22T19:16:03.017Z,67.0
2022-10-22T19:18:33.613Z,67.0
2022-10-22T19:21:14.211Z,67.0
2022-10-22T19:23:55.784Z,67.0
2022-10-22T19:26:16.366Z,67.0
2022-10-22T19:28:46.956Z,67.0
2022-10-22T19:33:57.712Z,67.0
2022-10-22T19:36:38.307Z,67.0
2022-10-22T19:39:09.049Z,67.0
2022-10-22T19:41:39.673Z,67.0
2022-10-22T19:44:10.285Z,67.0
2022-10-22T19:46:40.886Z,67.0
2022-10-22T19:49:11.432Z,67.0
2022-10-22T19:51:43.681Z,67.0
2022-10-22T19:54:14.313Z,67.0
2022-10-22T19:56:54.939Z,67.0
2022-10-22T19:59:26.283Z,67.0
2022-10-22T20:01:49.349Z,67.0
2022-10-22T20:04:19.927Z,67.0
2022-10-22T20:07:00.534Z,67.0
2022-10-22T20:09:31.151Z,67.0
2022-10-22T20:14:31.895Z,67.0
2022-10-22T20:17:02.480Z,67.0
2022-10-22T20:19:33.076Z,67.0
2022-10-22T20:22:14.938Z,67.0
2022-10-22T20:24:48.467Z,67.0
2022-10-22T20:27:19.037Z,67.0
2022-10-22T20:29:49.619Z,67.0
2022-10-22T20:32:20.205Z,67.0
2022-10-22T20:35:00.802Z,67.0
2022-10-22T20:37:31.378Z,68.0
2022-10-22T20:40:01.983Z,67.0
2022-10-22T20:42:32.570Z,67.0
2022-10-22T20:45:03.801Z,67.0
2022-10-22T20:47:51.014Z,68.0
2022-10-22T20:50:13.593Z,68.0
2022-10-22T20:57:45.047Z,67.0
2022-10-22T21:00:15.672Z,67.0
2022-10-22T21:02:46.240Z,68.0
2022-10-22T21:05:26.854Z,67.0
2022-10-22T21:07:57.450Z,67.0
2022-10-22T21:10:32.212Z,68.0
2022-10-22T21:13:03.210Z,68.0
2022-10-22T21:15:33.790Z,67.0
2022-10-22T21:18:04.362Z,68.0
2022-10-22T21:20:45.041Z,68.0
2022-10-22T21:23:15.609Z,68.0
2022-10-22T21:25:50.917Z,67.0
2022-10-22T21:28:21.507Z,67.0
2022-10-22T21:30:52.095Z,67.0
2022-10-22T21:36:02.844Z,68.0
2022-10-22T21:38:33.402Z,68.0
2022-10-22T21:41:04.000Z,68.0
2022-10-22T21:43:34.571Z,68.0
2022-10-22T21:46:06.885Z,68.0
2022-10-22T21:48:48.712Z,68.0
2022-10-22T21:51:19.298Z,68.0
2022-10-22T21:53:49.952Z,68.0
2022-10-22T21:56:20.645Z,68.0
2022-10-22T21:58:51.265Z,68.0
2022-10-22T22:01:21.986Z,68.0
2022-10-22T22:04:02.757Z,68.0
2022-10-22T22:06:33.803Z,68.0
2022-10-22T22:09:04.530Z,68.0
2022-10-22T22:11:35.296Z,68.0
2022-10-22T22:16:38.905Z,68.0
2022-10-22T22:19:09.549Z,68.0
2022-10-22T22:21:40.152Z,68.0
2022-10-22T22:24:10.749Z,68.0
2022-10-22T22:26:41.339Z,68.0
2022-10-22T22:29:11.973Z,68.0
2022-10-22T22:31:42.570Z,68.0
2022-10-22T22:34:23.174Z,68.0
2022-10-22T22:37:03.771Z,68.0
2022-10-22T22:39:34.343Z,68.0
2022-10-22T22:42:04.952Z,68.0
2022-10-22T22:44:35.535Z,68.0
2022-10-22T22:47:06.305Z,68.0
2022-10-22T22:49:46.885Z,68.0
2022-10-22T22:52:17.619Z,68.0
2022-10-22T22:57:18.408Z,68.0
2022-10-22T22:59:49.007Z,68.0
2022-10-22T23:02:29.570Z,68.0
2022-10-22T23:05:00.619Z,68.0
2022-10-22T23:07:31.257Z,68.0
2022-10-22T23:10:01.855Z,68.0
2022-10-22T23:12:32.444Z,68.0
2022-10-22T23:15:03.351Z,68.0
2022-10-22T23:17:43.941Z,68.0
2022-10-22T23:20:14.551Z,68.0
2022-10-22T23:22:45.195Z,68.0
2022-10-22T23:25:15.870Z,69.0
2022-10-22T23:27:46.449Z,69.0
2022-10-22T23:30:17.052Z,69.0
2022-10-22T23:32:57.660Z,69.0
2022-10-22T23:37:58.407Z,69.0
2022-10-22T23:40:29.024Z,69.0
2022-10-22T23:42:59.612Z,69.0
2022-10-22T23:45:30.228Z,68.0
2022-10-22T23:48:10.814Z,69.0
2022-10-22T23:50:41.399Z,68.0
2022-10-22T23:53:11.990Z,69.0
2022-10-22T23:55:42.605Z,69.0
2022-10-22T23:58:13.173Z,69.0
